sensor_id;sensor_type;location;lat;lon;timestamp;pressure;altitude;pressure_sealevel;temperature;humidity
27294;BME280;14785;52.556;13.430;2022-12-18T00:01:02;102406.34;;;-1.49;100.00
27294;BME280;14785;52.556;13.430;2022-12-18T00:03:32;102412.09;;;-1.03;100.00
27294;BME280;14785;52.556;13.430;2022-12-18T00:05:58;102417.41;;;-1.06;100.00
27294;BME280;14785;52.556;13.430;2022-12-18T00:08:23;102424.97;;;-0.65;100.00
27294;BME280;14785;52.556;13.430;2022-12-18T00:10:49;102417.41;;;-0.74;100.00
27294;BME280;14785;52.556;13.430;2022-12-18T00:13:14;102423.47;;;-0.14;100.00
27294;BME280;14785;52.556;13.430;2022-12-18T00:15:40;102423.59;;;-0.78;100.00
27294;BME280;14785;52.556;13.430;2022-12-18T00:18:05;102431.28;;;-1.04;100.00
27294;BME280;14785;52.556;13.430;2022-12-18T00:20:35;102427.88;;;-1.76;100.00
27294;BME280;14785;52.556;13.430;2022-12-18T00:23:00;102421.16;;;-1.51;100.00
27294;BME280;14785;52.556;13.430;2022-12-18T00:25:26;102428.84;;;-1.45;100.00
27294;BME280;14785;52.556;13.430;2022-12-18T00:27:51;102430.03;;;-1.23;100.00
27294;BME280;14785;52.556;13.430;2022-12-18T00:30:17;102417.00;;;-1.58;100.00
27294;BME280;14785;52.556;13.430;2022-12-18T00:32:43;102421.00;;;-1.45;100.00
27294;BME280;14785;52.556;13.430;2022-12-18T00:35:09;102426.63;;;-1.97;100.00
27294;BME280;14785;52.556;13.430;2022-12-18T00:37:34;102423.53;;;-1.42;100.00
27294;BME280;14785;52.556;13.430;2022-12-18T00:40:00;102427.44;;;-1.58;100.00
27294;BME280;14785;52.556;13.430;2022-12-18T00:42:26;102421.91;;;-1.46;100.00
27294;BME280;14785;52.556;13.430;2022-12-18T00:45:09;102425.88;;;-1.65;100.00
27294;BME280;14785;52.556;13.430;2022-12-18T00:47:35;102418.47;;;-1.83;100.00
27294;BME280;14785;52.556;13.430;2022-12-18T00:50:00;102412.16;;;-2.10;100.00
27294;BME280;14785;52.556;13.430;2022-12-18T00:52:26;102417.63;;;-2.64;100.00
27294;BME280;14785;52.556;13.430;2022-12-18T00:54:51;102420.00;;;-2.11;100.00
27294;BME280;14785;52.556;13.430;2022-12-18T00:57:16;102421.25;;;-1.54;100.00
27294;BME280;14785;52.556;13.430;2022-12-18T00:59:42;102415.28;;;-1.59;100.00
27294;BME280;14785;52.556;13.430;2022-12-18T01:02:07;102420.59;;;-1.62;100.00
27294;BME280;14785;52.556;13.430;2022-12-18T01:04:34;102406.34;;;-1.49;100.00
27294;BME280;14785;52.556;13.430;2022-12-18T01:07:01;102412.00;;;-1.67;100.00
27294;BME280;14785;52.556;13.430;2022-12-18T01:09:26;102415.72;;;-1.77;100.00
27294;BME280;14785;52.556;13.430;2022-12-18T01:11:52;102421.66;;;-1.72;100.00
27294;BME280;14785;52.556;13.430;2022-12-18T01:14:17;102423.69;;;-1.48;100.00
27294;BME280;14785;52.556;13.430;2022-12-18T01:16:43;102424.50;;;-1.81;100.00
27294;BME280;14785;52.556;13.430;2022-12-18T01:19:08;102430.41;;;-1.73;100.00
27294;BME280;14785;52.556;13.430;2022-12-18T01:21:34;102441.91;;;-1.11;100.00
27294;BME280;14785;52.556;13.430;2022-12-18T01:23:59;102435.63;;;-1.73;100.00
27294;BME280;14785;52.556;13.430;2022-12-18T01:26:25;102446.31;;;-2.23;100.00
27294;BME280;14785;52.556;13.430;2022-12-18T01:28:54;102453.91;;;-2.13;100.00
27294;BME280;14785;52.556;13.430;2022-12-18T01:31:24;102460.22;;;-2.24;100.00
27294;BME280;14785;52.556;13.430;2022-12-18T01:33:51;102450.00;;;-2.33;100.00
27294;BME280;14785;52.556;13.430;2022-12-18T01:38:48;102451.22;;;-2.08;100.00
27294;BME280;14785;52.556;13.430;2022-12-18T01:41:15;102450.06;;;-2.36;100.00
27294;BME280;14785;52.556;13.430;2022-12-18T01:43:50;102444.38;;;-1.75;100.00
27294;BME280;14785;52.556;13.430;2022-12-18T01:46:18;102456.56;;;-2.14;100.00
27294;BME280;14785;52.556;13.430;2022-12-18T01:48:46;102447.38;;;-1.92;100.00
27294;BME280;14785;52.556;13.430;2022-12-18T01:51:13;102452.00;;;-1.66;100.00
27294;BME280;14785;52.556;13.430;2022-12-18T01:53:41;102440.50;;;-1.96;100.00
27294;BME280;14785;52.556;13.430;2022-12-18T01:56:07;102449.56;;;-2.14;100.00
27294;BME280;14785;52.556;13.430;2022-12-18T02:01:11;102461.09;;;-2.24;100.00
27294;BME280;14785;52.556;13.430;2022-12-18T02:03:36;102465.56;;;-2.30;100.00
27294;BME280;14785;52.556;13.430;2022-12-18T02:08:53;102463.28;;;-2.47;100.00
27294;BME280;14785;52.556;13.430;2022-12-18T02:14:17;102476.28;;;-2.03;100.00
27294;BME280;14785;52.556;13.430;2022-12-18T02:24:35;102459.47;;;-2.29;100.00
27294;BME280;14785;52.556;13.430;2022-12-18T02:27:06;102467.47;;;-2.37;100.00
27294;BME280;14785;52.556;13.430;2022-12-18T02:29:50;102458.25;;;-2.13;100.00
27294;BME280;14785;52.556;13.430;2022-12-18T02:32:24;102462.41;;;-1.65;100.00
27294;BME280;14785;52.556;13.430;2022-12-18T02:34:52;102466.94;;;-1.74;100.00
27294;BME280;14785;52.556;13.430;2022-12-18T02:37:21;102478.03;;;-2.03;100.00
27294;BME280;14785;52.556;13.430;2022-12-18T02:39:49;102481.09;;;-1.84;100.00
27294;BME280;14785;52.556;13.430;2022-12-18T02:42:16;102468.84;;;-1.81;100.00
27294;BME280;14785;52.556;13.430;2022-12-18T02:44:48;102474.00;;;-1.06;100.00
27294;BME280;14785;52.556;13.430;2022-12-18T02:47:17;102485.50;;;-1.88;100.00
27294;BME280;14785;52.556;13.430;2022-12-18T02:53:38;102483.63;;;-2.21;100.00
27294;BME280;14785;52.556;13.430;2022-12-18T03:03:43;102482.75;;;-1.80;100.00
27294;BME280;14785;52.556;13.430;2022-12-18T03:06:35;102485.66;;;-2.35;100.00
27294;BME280;14785;52.556;13.430;2022-12-18T03:09:07;102483.69;;;-1.46;100.00
27294;BME280;14785;52.556;13.430;2022-12-18T03:11:38;102484.75;;;-1.93;100.00
27294;BME280;14785;52.556;13.430;2022-12-18T03:14:25;102475.78;;;-2.21;100.00
27294;BME280;14785;52.556;13.430;2022-12-18T03:16:54;102483.13;;;-2.38;100.00
27294;BME280;14785;52.556;13.430;2022-12-18T03:19:27;102481.69;;;-2.54;100.00
27294;BME280;14785;52.556;13.430;2022-12-18T03:21:56;102478.19;;;-1.71;100.00
27294;BME280;14785;52.556;13.430;2022-12-18T03:24:23;102474.66;;;-1.32;100.00
27294;BME280;14785;52.556;13.430;2022-12-18T03:26:53;102481.53;;;-1.29;100.00
27294;BME280;14785;52.556;13.430;2022-12-18T03:29:24;102481.56;;;-2.06;100.00
27294;BME280;14785;52.556;13.430;2022-12-18T03:31:56;102488.75;;;-1.77;100.00
27294;BME280;14785;52.556;13.430;2022-12-18T03:34:34;102485.75;;;-2.40;100.00
27294;BME280;14785;52.556;13.430;2022-12-18T03:37:03;102490.34;;;-2.52;100.00
27294;BME280;14785;52.556;13.430;2022-12-18T03:39:29;102490.69;;;-2.70;100.00
27294;BME280;14785;52.556;13.430;2022-12-18T03:41:56;102492.75;;;-2.43;100.00
27294;BME280;14785;52.556;13.430;2022-12-18T03:44:32;102488.38;;;-3.35;100.00
27294;BME280;14785;52.556;13.430;2022-12-18T03:47:15;102479.94;;;-3.01;100.00
27294;BME280;14785;52.556;13.430;2022-12-18T03:50:14;102491.84;;;-2.41;100.00
27294;BME280;14785;52.556;13.430;2022-12-18T03:52:49;102496.00;;;-1.91;100.00
27294;BME280;14785;52.556;13.430;2022-12-18T03:55:17;102495.94;;;-1.88;100.00
27294;BME280;14785;52.556;13.430;2022-12-18T03:57:45;102491.19;;;-2.09;100.00
27294;BME280;14785;52.556;13.430;2022-12-18T04:00:14;102501.19;;;-3.25;100.00
27294;BME280;14785;52.556;13.430;2022-12-18T04:02:45;102491.56;;;-3.21;100.00
27294;BME280;14785;52.556;13.430;2022-12-18T04:05:12;102497.91;;;-2.87;100.00
27294;BME280;14785;52.556;13.430;2022-12-18T04:07:39;102503.19;;;-2.90;100.00
27294;BME280;14785;52.556;13.430;2022-12-18T04:10:07;102492.00;;;-2.06;100.00
27294;BME280;14785;52.556;13.430;2022-12-18T04:12:37;102496.44;;;-2.53;100.00
27294;BME280;14785;52.556;13.430;2022-12-18T04:15:04;102502.19;;;-2.38;100.00
27294;BME280;14785;52.556;13.430;2022-12-18T04:17:29;102502.25;;;-1.98;100.00
27294;BME280;14785;52.556;13.430;2022-12-18T04:19:55;102499.44;;;-2.30;100.00
27294;BME280;14785;52.556;13.430;2022-12-18T04:22:21;102509.88;;;-2.30;100.00
27294;BME280;14785;52.556;13.430;2022-12-18T04:24:47;102514.78;;;-2.59;100.00
27294;BME280;14785;52.556;13.430;2022-12-18T04:27:13;102513.09;;;-2.63;100.00
27294;BME280;14785;52.556;13.430;2022-12-18T04:29:38;102511.44;;;-2.67;100.00
27294;BME280;14785;52.556;13.430;2022-12-18T04:32:04;102507.66;;;-2.51;100.00
27294;BME280;14785;52.556;13.430;2022-12-18T04:34:29;102507.66;;;-2.51;100.00
27294;BME280;14785;52.556;13.430;2022-12-18T04:36:55;102511.66;;;-2.32;100.00
27294;BME280;14785;52.556;13.430;2022-12-18T04:39:21;102506.34;;;-2.72;100.00
27294;BME280;14785;52.556;13.430;2022-12-18T04:41:46;102514.22;;;-2.31;100.00
27294;BME280;14785;52.556;13.430;2022-12-18T04:44:12;102514.50;;;-2.44;100.00
27294;BME280;14785;52.556;13.430;2022-12-18T04:46:37;102518.25;;;-2.60;100.00
27294;BME280;14785;52.556;13.430;2022-12-18T04:49:03;102515.97;;;-2.77;100.00
27294;BME280;14785;52.556;13.430;2022-12-18T04:51:28;102510.06;;;-3.39;100.00
27294;BME280;14785;52.556;13.430;2022-12-18T04:53:55;102503.84;;;-3.87;100.00
27294;BME280;14785;52.556;13.430;2022-12-18T04:56:20;102506.19;;;-3.69;100.00
27294;BME280;14785;52.556;13.430;2022-12-18T04:58:46;102516.41;;;-4.19;100.00
27294;BME280;14785;52.556;13.430;2022-12-18T05:01:13;102523.66;;;-3.78;100.00
27294;BME280;14785;52.556;13.430;2022-12-18T05:03:39;102527.19;;;-3.82;100.00
27294;BME280;14785;52.556;13.430;2022-12-18T05:06:06;102527.72;;;-3.03;100.00
27294;BME280;14785;52.556;13.430;2022-12-18T05:08:32;102528.03;;;-3.23;100.00
27294;BME280;14785;52.556;13.430;2022-12-18T05:11:10;102526.53;;;-3.37;100.00
27294;BME280;14785;52.556;13.430;2022-12-18T05:13:36;102531.97;;;-3.52;100.00
27294;BME280;14785;52.556;13.430;2022-12-18T05:16:03;102537.41;;;-3.69;100.00
27294;BME280;14785;52.556;13.430;2022-12-18T05:18:30;102538.91;;;-3.54;100.00
27294;BME280;14785;52.556;13.430;2022-12-18T05:20:55;102544.88;;;-3.46;100.00
27294;BME280;14785;52.556;13.430;2022-12-18T05:23:22;102551.84;;;-2.94;100.00
27294;BME280;14785;52.556;13.430;2022-12-18T05:25:55;102556.41;;;-3.08;100.00
27294;BME280;14785;52.556;13.430;2022-12-18T05:28:26;102554.63;;;-2.54;100.00
27294;BME280;14785;52.556;13.430;2022-12-18T05:30:54;102566.72;;;-2.06;100.00
27294;BME280;14785;52.556;13.430;2022-12-18T05:33:21;102549.97;;;-2.86;100.00
27294;BME280;14785;52.556;13.430;2022-12-18T05:35:56;102563.31;;;-2.08;100.00
27294;BME280;14785;52.556;13.430;2022-12-18T05:38:26;102565.09;;;-2.12;100.00
27294;BME280;14785;52.556;13.430;2022-12-18T05:40:53;102560.03;;;-2.19;100.00
27294;BME280;14785;52.556;13.430;2022-12-18T05:43:20;102559.94;;;-2.15;100.00
27294;BME280;14785;52.556;13.430;2022-12-18T05:45:47;102556.38;;;-1.68;100.00
27294;BME280;14785;52.556;13.430;2022-12-18T05:48:13;102559.38;;;-2.30;100.00
27294;BME280;14785;52.556;13.430;2022-12-18T05:50:40;102554.94;;;-2.72;100.00
27294;BME280;14785;52.556;13.430;2022-12-18T05:53:08;102559.78;;;-2.51;100.00
27294;BME280;14785;52.556;13.430;2022-12-18T05:55:34;102560.69;;;-2.54;100.00
27294;BME280;14785;52.556;13.430;2022-12-18T05:58:01;102557.09;;;-2.47;100.00
27294;BME280;14785;52.556;13.430;2022-12-18T06:00:26;102558.34;;;-2.20;100.00
27294;BME280;14785;52.556;13.430;2022-12-18T06:02:54;102563.94;;;-1.97;100.00
27294;BME280;14785;52.556;13.430;2022-12-18T06:05:21;102572.91;;;-2.10;100.00
27294;BME280;14785;52.556;13.430;2022-12-18T06:07:46;102578.28;;;-2.19;100.00
27294;BME280;14785;52.556;13.430;2022-12-18T06:10:13;102575.94;;;-1.90;100.00
27294;BME280;14785;52.556;13.430;2022-12-18T06:12:39;102581.69;;;-2.14;100.00
27294;BME280;14785;52.556;13.430;2022-12-18T06:15:05;102582.06;;;-2.35;100.00
27294;BME280;14785;52.556;13.430;2022-12-18T06:17:31;102584.25;;;-2.13;100.00
27294;BME280;14785;52.556;13.430;2022-12-18T06:19:57;102579.88;;;-2.12;100.00
27294;BME280;14785;52.556;13.430;2022-12-18T06:22:25;102589.59;;;-2.19;100.00
27294;BME280;14785;52.556;13.430;2022-12-18T06:24:51;102584.34;;;-2.66;100.00
27294;BME280;14785;52.556;13.430;2022-12-18T06:27:22;102591.19;;;-2.60;100.00
27294;BME280;14785;52.556;13.430;2022-12-18T06:29:47;102584.06;;;-2.49;100.00
27294;BME280;14785;52.556;13.430;2022-12-18T06:32:13;102592.34;;;-2.76;100.00
27294;BME280;14785;52.556;13.430;2022-12-18T06:34:38;102598.53;;;-2.83;100.00
27294;BME280;14785;52.556;13.430;2022-12-18T06:37:04;102610.63;;;-2.79;100.00
27294;BME280;14785;52.556;13.430;2022-12-18T06:39:29;102608.59;;;-2.62;100.00
27294;BME280;14785;52.556;13.430;2022-12-18T06:41:58;102615.63;;;-2.67;100.00
27294;BME280;14785;52.556;13.430;2022-12-18T06:44:23;102631.63;;;-2.38;100.00
27294;BME280;14785;52.556;13.430;2022-12-18T06:46:49;102629.97;;;-2.44;100.00
27294;BME280;14785;52.556;13.430;2022-12-18T06:49:14;102616.16;;;-2.47;100.00
27294;BME280;14785;52.556;13.430;2022-12-18T06:51:42;102623.09;;;-2.48;100.00
27294;BME280;14785;52.556;13.430;2022-12-18T06:54:08;102622.66;;;-2.72;100.00
27294;BME280;14785;52.556;13.430;2022-12-18T06:56:35;102628.34;;;-2.49;100.00
27294;BME280;14785;52.556;13.430;2022-12-18T06:59:01;102642.19;;;-3.00;100.00
27294;BME280;14785;52.556;13.430;2022-12-18T07:01:26;102656.56;;;-3.34;100.00
27294;BME280;14785;52.556;13.430;2022-12-18T07:03:53;102658.63;;;-3.60;100.00
27294;BME280;14785;52.556;13.430;2022-12-18T07:06:22;102644.56;;;-3.44;100.00
27294;BME280;14785;52.556;13.430;2022-12-18T07:08:48;102630.75;;;-3.49;100.00
27294;BME280;14785;52.556;13.430;2022-12-18T07:11:16;102630.06;;;-3.63;100.00
27294;BME280;14785;52.556;13.430;2022-12-18T07:13:43;102636.13;;;-3.01;100.00
27294;BME280;14785;52.556;13.430;2022-12-18T07:18:36;102639.00;;;-3.17;100.00
27294;BME280;14785;52.556;13.430;2022-12-18T07:21:09;102644.25;;;-3.20;100.00
27294;BME280;14785;52.556;13.430;2022-12-18T07:23:35;102643.16;;;-3.06;100.00
27294;BME280;14785;52.556;13.430;2022-12-18T07:26:04;102647.91;;;-3.36;100.00
27294;BME280;14785;52.556;13.430;2022-12-18T07:28:31;102650.06;;;-3.68;100.00
27294;BME280;14785;52.556;13.430;2022-12-18T07:30:57;102649.63;;;-3.32;100.00
27294;BME280;14785;52.556;13.430;2022-12-18T07:33:22;102644.63;;;-2.90;100.00
27294;BME280;14785;52.556;13.430;2022-12-18T07:35:47;102633.63;;;-2.54;100.00
27294;BME280;14785;52.556;13.430;2022-12-18T07:38:14;102648.63;;;-3.24;100.00
27294;BME280;14785;52.556;13.430;2022-12-18T07:40:39;102638.78;;;-3.05;100.00
27294;BME280;14785;52.556;13.430;2022-12-18T07:43:06;102637.81;;;-2.45;100.00
27294;BME280;14785;52.556;13.430;2022-12-18T07:45:32;102634.44;;;-2.03;100.00
27294;BME280;14785;52.556;13.430;2022-12-18T07:47:57;102643.84;;;-1.11;100.00
27294;BME280;14785;52.556;13.430;2022-12-18T07:50:24;102638.09;;;-2.12;100.00
27294;BME280;14785;52.556;13.430;2022-12-18T07:52:49;102643.75;;;-2.36;100.00
27294;BME280;14785;52.556;13.430;2022-12-18T07:55:15;102637.41;;;-1.75;100.00
27294;BME280;14785;52.556;13.430;2022-12-18T07:57:40;102628.28;;;-1.99;100.00
27294;BME280;14785;52.556;13.430;2022-12-18T08:00:06;102625.41;;;-2.31;100.00
27294;BME280;14785;52.556;13.430;2022-12-18T08:02:32;102636.78;;;-2.35;100.00
27294;BME280;14785;52.556;13.430;2022-12-18T08:04:57;102640.28;;;-2.38;100.00
27294;BME280;14785;52.556;13.430;2022-12-18T08:07:27;102645.50;;;-2.89;100.00
27294;BME280;14785;52.556;13.430;2022-12-18T08:09:54;102639.91;;;-2.65;100.00
27294;BME280;14785;52.556;13.430;2022-12-18T08:12:22;102644.78;;;-2.44;100.00
27294;BME280;14785;52.556;13.430;2022-12-18T08:14:51;102641.53;;;-2.10;100.00
27294;BME280;14785;52.556;13.430;2022-12-18T08:17:16;102650.06;;;-3.05;100.00
27294;BME280;14785;52.556;13.430;2022-12-18T08:19:42;102642.72;;;-2.77;100.00
27294;BME280;14785;52.556;13.430;2022-12-18T08:22:08;102649.94;;;-2.41;100.00
27294;BME280;14785;52.556;13.430;2022-12-18T08:24:35;102654.94;;;-2.29;100.00
27294;BME280;14785;52.556;13.430;2022-12-18T08:27:02;102651.69;;;-2.43;100.00
27294;BME280;14785;52.556;13.430;2022-12-18T08:29:28;102659.06;;;-2.18;100.00
27294;BME280;14785;52.556;13.430;2022-12-18T08:31:55;102658.94;;;-1.25;100.00
27294;BME280;14785;52.556;13.430;2022-12-18T08:34:21;102661.13;;;-2.36;100.00
27294;BME280;14785;52.556;13.430;2022-12-18T08:36:46;102650.31;;;-2.15;100.00
27294;BME280;14785;52.556;13.430;2022-12-18T08:39:13;102669.63;;;-2.78;100.00
27294;BME280;14785;52.556;13.430;2022-12-18T08:41:38;102661.91;;;-1.85;100.00
27294;BME280;14785;52.556;13.430;2022-12-18T08:44:04;102669.09;;;-2.45;100.00
27294;BME280;14785;52.556;13.430;2022-12-18T08:46:51;102670.72;;;-2.38;100.00
27294;BME280;14785;52.556;13.430;2022-12-18T08:49:16;102673.66;;;-2.09;100.00
27294;BME280;14785;52.556;13.430;2022-12-18T08:51:42;102678.97;;;-2.15;100.00
27294;BME280;14785;52.556;13.430;2022-12-18T08:54:11;102671.28;;;-1.74;100.00
27294;BME280;14785;52.556;13.430;2022-12-18T08:56:37;102676.91;;;-1.95;100.00
27294;BME280;14785;52.556;13.430;2022-12-18T08:59:02;102679.25;;;-1.81;100.00
27294;BME280;14785;52.556;13.430;2022-12-18T09:01:29;102686.09;;;-2.23;100.00
27294;BME280;14785;52.556;13.430;2022-12-18T09:03:55;102688.63;;;-1.73;100.00
27294;BME280;14785;52.556;13.430;2022-12-18T09:06:21;102685.13;;;-1.72;100.00
27294;BME280;14785;52.556;13.430;2022-12-18T09:08:47;102689.22;;;-1.18;100.00
27294;BME280;14785;52.556;13.430;2022-12-18T09:11:19;102690.03;;;-1.57;100.00
27294;BME280;14785;52.556;13.430;2022-12-18T09:13:44;102683.66;;;-1.85;100.00
27294;BME280;14785;52.556;13.430;2022-12-18T09:16:10;102701.22;;;-1.96;100.00
27294;BME280;14785;52.556;13.430;2022-12-18T09:18:35;102698.59;;;-2.43;100.00
27294;BME280;14785;52.556;13.430;2022-12-18T09:21:11;102699.97;;;-1.74;100.00
27294;BME280;14785;52.556;13.430;2022-12-18T09:23:37;102713.56;;;-1.16;100.00
27294;BME280;14785;52.556;13.430;2022-12-18T09:26:02;102709.03;;;-1.49;100.00
27294;BME280;14785;52.556;13.430;2022-12-18T09:28:28;102712.06;;;-1.27;100.00
27294;BME280;14785;52.556;13.430;2022-12-18T09:30:53;102703.44;;;-1.31;100.00
27294;BME280;14785;52.556;13.430;2022-12-18T09:33:19;102704.59;;;-1.44;100.00
27294;BME280;14785;52.556;13.430;2022-12-18T09:35:45;102699.34;;;-1.42;100.00
27294;BME280;14785;52.556;13.430;2022-12-18T09:38:19;102709.72;;;-1.39;100.00
27294;BME280;14785;52.556;13.430;2022-12-18T09:40:51;102700.47;;;-1.57;100.00
27294;BME280;14785;52.556;13.430;2022-12-18T09:43:21;102694.38;;;-1.54;100.00
27294;BME280;14785;52.556;13.430;2022-12-18T09:45:52;102684.25;;;-1.30;100.00
27294;BME280;14785;52.556;13.430;2022-12-18T09:48:32;102679.34;;;-1.87;100.00
27294;BME280;14785;52.556;13.430;2022-12-18T09:51:24;102683.59;;;-1.00;100.00
27294;BME280;14785;52.556;13.430;2022-12-18T09:53:56;102675.31;;;-1.17;100.00
27294;BME280;14785;52.556;13.430;2022-12-18T09:56:25;102680.97;;;-1.38;100.00
27294;BME280;14785;52.556;13.430;2022-12-18T09:58:58;102670.56;;;-2.29;100.00
27294;BME280;14785;52.556;13.430;2022-12-18T10:01:24;102658.31;;;-1.78;100.00
27294;BME280;14785;52.556;13.430;2022-12-18T10:03:50;102648.78;;;-2.27;100.00
27294;BME280;14785;52.556;13.430;2022-12-18T10:06:38;102641.41;;;-2.04;100.00
27294;BME280;14785;52.556;13.430;2022-12-18T10:11:55;102639.63;;;-2.47;100.00
27294;BME280;14785;52.556;13.430;2022-12-18T10:14:48;102640.88;;;-1.76;100.00
27294;BME280;14785;52.556;13.430;2022-12-18T10:19:59;102636.22;;;-2.05;100.00
27294;BME280;14785;52.556;13.430;2022-12-18T10:27:40;102637.78;;;-1.13;100.00
27294;BME280;14785;52.556;13.430;2022-12-18T10:30:17;102646.78;;;-0.89;100.00
27294;BME280;14785;52.556;13.430;2022-12-18T10:32:42;102640.66;;;-1.25;100.00
27294;BME280;14785;52.556;13.430;2022-12-18T10:38:44;102630.63;;;-0.68;100.00
27294;BME280;14785;52.556;13.430;2022-12-18T10:43:31;102615.03;;;-0.73;100.00
27294;BME280;14785;52.556;13.430;2022-12-18T10:48:24;102614.56;;;-0.53;100.00
27294;BME280;14785;52.556;13.430;2022-12-18T10:50:51;102619.00;;;-0.57;100.00
27294;BME280;14785;52.556;13.430;2022-12-18T10:53:23;102613.84;;;-0.95;100.00
27294;BME280;14785;52.556;13.430;2022-12-18T10:55:49;102606.84;;;-0.94;100.00
27294;BME280;14785;52.556;13.430;2022-12-18T11:01:17;102599.38;;;-0.73;100.00
27294;BME280;14785;52.556;13.430;2022-12-18T11:03:45;102589.38;;;-0.91;100.00
27294;BME280;14785;52.556;13.430;2022-12-18T11:06:13;102591.16;;;-0.93;100.00
27294;BME280;14785;52.556;13.430;2022-12-18T11:08:43;102608.97;;;-1.10;100.00
27294;BME280;14785;52.556;13.430;2022-12-18T11:11:35;102599.63;;;-0.48;100.00
27294;BME280;14785;52.556;13.430;2022-12-18T11:14:05;102587.66;;;-0.58;100.00
27294;BME280;14785;52.556;13.430;2022-12-18T11:16:42;102601.06;;;-1.45;100.00
27294;BME280;14785;52.556;13.430;2022-12-18T11:21:41;102598.88;;;-1.25;100.00
27294;BME280;14785;52.556;13.430;2022-12-18T11:24:22;102601.53;;;-1.66;100.00
27294;BME280;14785;52.556;13.430;2022-12-18T11:26:49;102599.97;;;-0.97;100.00
27294;BME280;14785;52.556;13.430;2022-12-18T11:29:31;102602.06;;;-0.76;100.00
27294;BME280;14785;52.556;13.430;2022-12-18T11:32:37;102594.63;;;-0.92;100.00
27294;BME280;14785;52.556;13.430;2022-12-18T11:35:10;102594.84;;;-0.33;100.00
27294;BME280;14785;52.556;13.430;2022-12-18T11:37:40;102598.44;;;-0.37;100.00
27294;BME280;14785;52.556;13.430;2022-12-18T11:40:14;102592.78;;;-0.54;100.00
27294;BME280;14785;52.556;13.430;2022-12-18T11:43:09;102588.69;;;-0.64;100.00
27294;BME280;14785;52.556;13.430;2022-12-18T11:45:35;102588.72;;;-0.32;100.00
27294;BME280;14785;52.556;13.430;2022-12-18T11:48:18;102604.81;;;-0.47;100.00
27294;BME280;14785;52.556;13.430;2022-12-18T11:50:54;102603.66;;;-0.37;100.00
27294;BME280;14785;52.556;13.430;2022-12-18T11:53:21;102603.59;;;-0.34;100.00
27294;BME280;14785;52.556;13.430;2022-12-18T12:06:53;102643.19;;;-1.63;100.00
27294;BME280;14785;52.556;13.430;2022-12-18T12:09:39;102641.69;;;-1.73;100.00
27294;BME280;14785;52.556;13.430;2022-12-18T12:20:16;102634.75;;;-0.95;100.00
27294;BME280;14785;52.556;13.430;2022-12-18T12:26:09;102638.63;;;-0.41;100.00
27294;BME280;14785;52.556;13.430;2022-12-18T12:34:04;102648.75;;;-0.99;100.00
27294;BME280;14785;52.556;13.430;2022-12-18T12:36:45;102642.50;;;-0.57;100.00
27294;BME280;14785;52.556;13.430;2022-12-18T12:39:17;102657.13;;;-0.85;100.00
27294;BME280;14785;52.556;13.430;2022-12-18T12:41:45;102658.69;;;-0.78;100.00
27294;BME280;14785;52.556;13.430;2022-12-18T12:44:34;102666.56;;;-1.16;100.00
27294;BME280;14785;52.556;13.430;2022-12-18T12:47:11;102649.31;;;-0.50;100.00
27294;BME280;14785;52.556;13.430;2022-12-18T12:49:39;102650.88;;;-0.43;100.00
27294;BME280;14785;52.556;13.430;2022-12-18T12:52:12;102652.16;;;-0.95;100.00
27294;BME280;14785;52.556;13.430;2022-12-18T12:54:41;102636.88;;;-1.12;100.00
27294;BME280;14785;52.556;13.430;2022-12-18T13:05:21;102590.47;;;-0.66;100.00
27294;BME280;14785;52.556;13.430;2022-12-18T13:08:10;102593.47;;;-1.16;100.00
27294;BME280;14785;52.556;13.430;2022-12-18T13:10:40;102581.13;;;-1.09;100.00
27294;BME280;14785;52.556;13.430;2022-12-18T13:13:11;102586.34;;;-0.74;100.00
27294;BME280;14785;52.556;13.430;2022-12-18T13:20:43;102592.53;;;-0.45;100.00
27294;BME280;14785;52.556;13.430;2022-12-18T13:23:29;102601.25;;;-0.44;100.00
27294;BME280;14785;52.556;13.430;2022-12-18T13:25:55;102602.47;;;-0.57;100.00
27294;BME280;14785;52.556;13.430;2022-12-18T13:34:16;102599.88;;;-0.57;100.00
27294;BME280;14785;52.556;13.430;2022-12-18T13:36:42;102611.53;;;-0.72;100.00
27294;BME280;14785;52.556;13.430;2022-12-18T13:39:35;102602.78;;;-0.04;100.00
27294;BME280;14785;52.556;13.430;2022-12-18T13:44:52;102586.53;;;-0.47;100.00
27294;BME280;14785;52.556;13.430;2022-12-18T13:47:35;102584.16;;;-1.27;100.00
27294;BME280;14785;52.556;13.430;2022-12-18T13:50:12;102577.31;;;-1.33;100.00
27294;BME280;14785;52.556;13.430;2022-12-18T13:52:45;102561.09;;;-0.74;100.00
27294;BME280;14785;52.556;13.430;2022-12-18T13:55:16;102560.22;;;-0.41;100.00
27294;BME280;14785;52.556;13.430;2022-12-18T13:57:43;102571.06;;;-0.56;100.00
27294;BME280;14785;52.556;13.430;2022-12-18T14:00:28;102576.31;;;-0.56;100.00
27294;BME280;14785;52.556;13.430;2022-12-18T14:02:55;102580.09;;;-0.69;100.00
27294;BME280;14785;52.556;13.430;2022-12-18T14:05:27;102555.78;;;-0.71;100.00
27294;BME280;14785;52.556;13.430;2022-12-18T14:07:54;102554.03;;;-1.05;100.00
27294;BME280;14785;52.556;13.430;2022-12-18T14:10:23;102558.19;;;-0.97;100.00
27294;BME280;14785;52.556;13.430;2022-12-18T14:12:50;102562.41;;;-1.28;100.00
27294;BME280;14785;52.556;13.430;2022-12-18T14:17:57;102553.84;;;-0.98;100.00
27294;BME280;14785;52.556;13.430;2022-12-18T14:20:32;102559.81;;;-0.93;100.00
27294;BME280;14785;52.556;13.430;2022-12-18T14:22:58;102567.22;;;-1.10;100.00
27294;BME280;14785;52.556;13.430;2022-12-18T14:25:30;102557.84;;;-1.18;100.00
27294;BME280;14785;52.556;13.430;2022-12-18T14:28:14;102550.81;;;-1.53;100.00
27294;BME280;14785;52.556;13.430;2022-12-18T14:30:45;102546.31;;;-1.10;100.00